createdAt,value
2022-09-11T00:01:07.097Z,19.96
2022-09-11T00:03:09.750Z,19.97
2022-09-11T00:05:13.899Z,19.96
2022-09-11T00:07:15.489Z,19.97
2022-09-11T00:09:19.152Z,19.96
2022-09-11T00:11:22.676Z,19.98
2022-09-11T00:13:24.232Z,19.99
2022-09-11T00:15:25.979Z,19.98
2022-09-11T00:17:36.849Z,19.98
2022-09-11T00:19:42.136Z,19.98
2022-09-11T00:21:43.878Z,19.98
2022-09-11T00:23:51.410Z,19.98
2022-09-11T00:25:53.472Z,19.99
2022-09-11T00:27:56.088Z,19.98
2022-09-11T00:29:57.541Z,19.98
2022-09-11T00:31:59.154Z,19.97
2022-09-11T00:34:01.037Z,19.97
2022-09-11T00:36:06.256Z,19.98
2022-09-11T00:38:09.149Z,19.98
2022-09-11T00:40:11.231Z,19.99
2022-09-11T00:42:12.952Z,19.98
2022-09-11T00:44:16.288Z,19.98
2022-09-11T00:46:18.322Z,19.97
2022-09-11T00:48:24.785Z,19.97
2022-09-11T00:50:31.617Z,19.97
2022-09-11T00:52:39.329Z,19.97
2022-09-11T00:54:56.647Z,19.95
2022-09-11T00:57:01.295Z,19.96
2022-09-11T00:59:04.499Z,19.97
2022-09-11T01:01:08.497Z,19.95
2022-09-11T01:03:12.239Z,19.96
2022-09-11T01:05:13.964Z,19.96
2022-09-11T01:07:17.921Z,19.95
2022-09-11T01:09:20.808Z,19.96
2022-09-11T01:12:12.903Z,19.94
2022-09-11T01:14:34.492Z,19.93
2022-09-11T01:16:42.672Z,19.91
2022-09-11T01:18:56.946Z,19.91
2022-09-11T01:21:29.374Z,19.92
2022-09-11T01:24:09.229Z,19.89
2022-09-11T01:26:37.965Z,19.88
2022-09-11T01:28:52.397Z,19.88
2022-09-11T01:31:05.513Z,19.87
2022-09-11T01:33:28.390Z,19.87
2022-09-11T01:35:59.589Z,19.86
2022-09-11T01:38:09.505Z,19.85
2022-09-11T01:40:34.468Z,19.83
2022-09-11T01:42:43.263Z,19.84
2022-09-11T01:44:54.536Z,19.84
2022-09-11T01:46:56.340Z,19.82
2022-09-11T01:49:32.300Z,19.83
2022-09-11T01:51:36.290Z,19.83
2022-09-11T01:53:40.570Z,19.84
2022-09-11T01:55:46.704Z,19.84
2022-09-11T01:57:56.340Z,19.84
2022-09-11T02:00:02.112Z,19.83
2022-09-11T02:02:11.995Z,19.83
2022-09-11T02:04:18.850Z,19.84
2022-09-11T02:06:31.483Z,19.82
2022-09-11T02:08:47.948Z,19.81
2022-09-11T02:10:59.096Z,19.81
2022-09-11T02:13:37.167Z,19.79
2022-09-11T02:15:47.303Z,19.79
2022-09-11T02:18:11.484Z,19.79
2022-09-11T02:20:13.524Z,19.79
2022-09-11T02:22:15.121Z,19.80
2022-09-11T02:24:17.991Z,19.81
2022-09-11T02:26:34.358Z,19.82
2022-09-11T02:28:37.440Z,19.82
2022-09-11T02:30:40.379Z,19.81
2022-09-11T02:32:44.317Z,19.82
2022-09-11T02:34:48.429Z,19.81
2022-09-11T02:37:13.513Z,19.80
2022-09-11T02:39:50.002Z,19.80
2022-09-11T02:42:10.152Z,19.79
2022-09-11T02:44:43.753Z,19.77
2022-09-11T02:47:06.005Z,19.77
2022-09-11T02:49:19.686Z,19.78
2022-09-11T02:51:44.595Z,19.75
2022-09-11T02:54:05.556Z,19.76
2022-09-11T02:56:22.390Z,19.75
2022-09-11T02:58:51.081Z,19.75
2022-09-11T03:00:56.381Z,19.74
2022-09-11T03:02:59.368Z,19.74
2022-09-11T03:05:00.909Z,19.76
2022-09-11T03:07:03.456Z,19.76
2022-09-11T03:09:07.489Z,19.77
2022-09-11T03:11:09.517Z,19.76
2022-09-11T03:13:11.334Z,19.77
2022-09-11T03:15:17.344Z,19.78
2022-09-11T03:17:20.160Z,19.79
2022-09-11T03:19:22.789Z,19.80
2022-09-11T03:21:27.455Z,19.77
2022-09-11T03:23:29.125Z,19.78
2022-09-11T03:25:30.756Z,19.78
2022-09-11T03:27:39.396Z,19.78
2022-09-11T03:29:44.798Z,19.78
2022-09-11T03:31:47.330Z,19.78
2022-09-11T03:33:49.098Z,19.78
2022-09-11T03:35:53.815Z,19.78
2022-09-11T03:37:55.705Z,19.79
2022-09-11T03:39:57.393Z,19.79
2022-09-11T03:42:03.536Z,19.79
2022-09-11T03:44:05.205Z,19.78
2022-09-11T03:46:10.173Z,19.79
2022-09-11T03:48:13.793Z,19.78
2022-09-11T03:50:15.488Z,19.78
2022-09-11T03:52:17.199Z,19.79
2022-09-11T03:54:21.331Z,19.80
2022-09-11T03:56:24.680Z,19.79
2022-09-11T03:58:28.920Z,19.79
2022-09-11T04:00:30.608Z,19.78
2022-09-11T04:02:32.747Z,19.79
2022-09-11T04:04:34.462Z,19.78
2022-09-11T04:06:36.231Z,19.79
2022-09-11T04:08:41.281Z,19.79
2022-09-11T04:10:44.689Z,19.78
2022-09-11T04:12:47.506Z,19.79
2022-09-11T04:14:50.314Z,19.79
2022-09-11T04:16:53.794Z,19.79
2022-09-11T04:18:56.087Z,19.79
2022-09-11T04:20:59.024Z,19.77
2022-09-11T04:23:02.933Z,19.79
2022-09-11T04:25:06.272Z,19.79
2022-09-11T04:27:08.873Z,19.78
2022-09-11T04:29:13.448Z,19.79
2022-09-11T04:31:16.798Z,19.78
2022-09-11T04:33:18.863Z,19.79
2022-09-11T04:35:20.325Z,19.79
2022-09-11T04:37:35.490Z,19.78
2022-09-11T04:39:37.710Z,19.78
2022-09-11T04:41:39.242Z,19.78
2022-09-11T04:43:41.695Z,19.79
2022-09-11T04:45:46.211Z,19.79
2022-09-11T04:47:48.146Z,19.79
2022-09-11T04:49:49.724Z,19.79
2022-09-11T04:51:51.185Z,19.78
2022-09-11T04:54:01.944Z,19.79
2022-09-11T04:56:15.947Z,19.79
2022-09-11T04:58:21.005Z,19.78
2022-09-11T05:00:22.483Z,19.78
2022-09-11T05:02:24.349Z,19.78
2022-09-11T05:04:28.340Z,19.77
2022-09-11T05:06:30.834Z,19.76
2022-09-11T05:08:35.020Z,19.79
2022-09-11T05:10:38.926Z,19.78
2022-09-11T05:12:40.977Z,19.78
2022-09-11T05:14:43.471Z,19.77
2022-09-11T05:16:46.189Z,19.77
2022-09-11T05:18:52.550Z,19.77
2022-09-11T05:21:04.081Z,19.76
2022-09-11T05:23:05.771Z,19.77
2022-09-11T05:25:08.967Z,19.76
2022-09-11T05:27:11.975Z,19.78
2022-09-11T05:29:15.479Z,19.77
2022-09-11T05:31:23.154Z,19.77
2022-09-11T05:33:26.859Z,19.78
2022-09-11T05:35:32.469Z,19.76
2022-09-11T05:37:34.799Z,19.78
2022-09-11T05:39:38.084Z,19.78
2022-09-11T05:41:41.024Z,19.78
2022-09-11T05:43:43.516Z,19.79
2022-09-11T05:45:55.544Z,19.79
2022-09-11T05:48:08.246Z,19.81
2022-09-11T05:50:12.365Z,19.82
2022-09-11T05:52:15.267Z,19.82
2022-09-11T05:54:19.230Z,19.84
2022-09-11T05:56:23.865Z,19.84
2022-09-11T05:58:31.724Z,19.86
2022-09-11T06:00:33.433Z,19.85
2022-09-11T06:02:35.764Z,19.86
2022-09-11T06:04:37.251Z,19.87
2022-09-11T06:06:38.760Z,19.89
2022-09-11T06:08:44.252Z,19.90
2022-09-11T06:10:46.657Z,19.92
2022-09-11T06:12:49.154Z,19.93
2022-09-11T06:14:50.636Z,19.95
2022-09-11T06:16:56.909Z,19.95
2022-09-11T06:19:02.051Z,19.96
2022-09-11T06:21:10.601Z,19.97
2022-09-11T06:23:27.746Z,19.98
2022-09-11T06:25:31.660Z,19.99
2022-09-11T06:27:33.613Z,20.02
2022-09-11T06:29:35.239Z,20.03
2022-09-11T06:31:37.448Z,20.03
2022-09-11T06:33:40.878Z,20.06
2022-09-11T06:35:42.897Z,20.06
2022-09-11T06:37:44.374Z,20.09
2022-09-11T06:39:46.136Z,20.10
2022-09-11T06:41:56.681Z,20.11
2022-09-11T06:44:13.133Z,20.12
2022-09-11T06:46:20.761Z,20.12
2022-09-11T06:48:23.556Z,20.15
2022-09-11T06:50:25.299Z,20.16
2022-09-11T06:52:37.772Z,20.17
2022-09-11T06:54:57.389Z,20.19
2022-09-11T06:57:00.254Z,20.22
2022-09-11T06:59:08.231Z,20.23
2022-09-11T07:01:18.217Z,20.24
2022-09-11T07:03:22.844Z,20.28
2022-09-11T07:05:25.977Z,20.31
2022-09-11T07:07:28.281Z,20.34
2022-09-11T07:09:30.389Z,20.38
2022-09-11T07:11:34.290Z,20.39
2022-09-11T07:13:38.074Z,20.44
2022-09-11T07:15:40.949Z,20.45
2022-09-11T07:17:42.858Z,20.47
2022-09-11T07:19:47.004Z,20.50
2022-09-11T07:21:49.764Z,20.51
2022-09-11T07:23:59.318Z,20.54
2022-09-11T07:26:10.800Z,20.56
2022-09-11T07:28:15.503Z,20.59
2022-09-11T07:30:22.977Z,20.59
2022-09-11T07:32:29.126Z,20.62
2022-09-11T07:34:31.364Z,20.64
2022-09-11T07:36:37.518Z,20.67
2022-09-11T07:38:44.581Z,20.68
2022-09-11T07:40:48.180Z,20.70
2022-09-11T07:42:49.872Z,20.72
2022-09-11T07:44:51.472Z,20.73
2022-09-11T07:46:55.892Z,20.76
2022-09-11T07:48:58.806Z,20.78
2022-09-11T07:51:03.508Z,20.80
2022-09-11T07:53:05.972Z,20.82
2022-09-11T07:55:08.125Z,20.83
2022-09-11T07:57:11.644Z,20.86
2022-09-11T07:59:22.895Z,20.88
2022-09-11T08:01:29.492Z,20.90
2022-09-11T08:03:33.340Z,20.92
2022-09-11T08:05:36.280Z,20.94
2022-09-11T08:07:38.250Z,20.96
2022-09-11T08:09:39.973Z,20.99
2022-09-11T08:11:48.567Z,21.01
2022-09-11T08:13:53.841Z,21.03
2022-09-11T08:15:56.986Z,21.05
2022-09-11T08:17:58.430Z,21.06
2022-09-11T08:20:00.153Z,21.10
2022-09-11T08:22:02.349Z,21.13
2022-09-11T08:24:09.229Z,21.13
2022-09-11T08:26:16.004Z,21.15
2022-09-11T08:28:17.745Z,21.17
2022-09-11T08:30:19.426Z,21.19
2022-09-11T08:32:24.652Z,21.21
2022-09-11T08:34:27.405Z,21.24
2022-09-11T08:36:29.758Z,21.25
2022-09-11T08:38:33.289Z,21.28
2022-09-11T08:40:38.505Z,21.31
2022-09-11T08:42:44.498Z,21.35
2022-09-11T08:44:54.019Z,21.40
2022-09-11T08:47:20.550Z,21.43
2022-09-11T08:49:46.356Z,21.48
2022-09-11T08:51:54.263Z,21.53
2022-09-11T08:54:00.075Z,21.59
2022-09-11T08:56:09.751Z,21.64
2022-09-11T08:58:18.278Z,21.69
2022-09-11T09:00:27.691Z,21.71
2022-09-11T09:03:03.582Z,21.75
2022-09-11T09:05:28.485Z,21.79
2022-09-11T09:07:43.780Z,21.84
2022-09-11T09:10:03.706Z,21.88
2022-09-11T09:12:35.902Z,21.93
2022-09-11T09:15:02.567Z,21.98
2022-09-11T09:17:07.924Z,22.02
2022-09-11T09:19:16.465Z,22.07
2022-09-11T09:21:18.084Z,22.11
2022-09-11T09:23:25.825Z,22.16
2022-09-11T09:25:28.985Z,22.21
2022-09-11T09:27:40.014Z,22.26
2022-09-11T09:29:45.174Z,22.33
2022-09-11T09:31:50.385Z,22.39
2022-09-11T09:34:17.356Z,22.46
2022-09-11T09:36:43.866Z,22.53
2022-09-11T09:38:46.675Z,22.60
2022-09-11T09:40:59.653Z,22.67
2022-09-11T09:43:50.415Z,22.71
2022-09-11T09:46:18.886Z,22.73
2022-09-11T09:48:38.997Z,22.78
2022-09-11T09:50:44.573Z,22.82
2022-09-11T09:52:50.257Z,22.85
2022-09-11T09:55:04.293Z,22.89
2022-09-11T09:57:09.638Z,22.91
2022-09-11T09:59:11.510Z,22.94
2022-09-11T10:01:44.289Z,22.94
2022-09-11T10:03:58.704Z,22.95
2022-09-11T10:06:03.484Z,22.96
2022-09-11T10:08:22.821Z,22.99
2022-09-11T10:10:31.424Z,23.00
2022-09-11T10:12:33.491Z,23.02
2022-09-11T10:14:54.302Z,23.06
2022-09-11T10:16:56.510Z,23.10
2022-09-11T10:18:58.172Z,23.14
2022-09-11T10:21:11.537Z,23.18
2022-09-11T10:23:24.238Z,23.27
2022-09-11T10:25:29.873Z,23.36
2022-09-11T10:27:39.135Z,23.50
2022-09-11T10:29:51.945Z,23.67
2022-09-11T10:31:57.533Z,23.80
2022-09-11T10:34:04.509Z,23.92
2022-09-11T10:36:09.974Z,24.05
2022-09-11T10:38:31.302Z,24.19
2022-09-11T10:40:34.248Z,24.38
2022-09-11T10:42:37.912Z,24.54
2022-09-11T10:44:44.162Z,24.74
2022-09-11T10:46:46.623Z,24.95
2022-09-11T10:48:55.230Z,25.17
2022-09-11T10:51:26.702Z,25.41
2022-09-11T10:53:31.015Z,25.65
2022-09-11T10:55:41.798Z,25.88
2022-09-11T10:57:55.240Z,26.01
2022-09-11T11:00:02.502Z,26.11
2022-09-11T11:02:04.186Z,26.19
2022-09-11T11:04:13.657Z,26.23
2022-09-11T11:06:41.233Z,26.28
2022-09-11T11:09:07.862Z,26.34
2022-09-11T11:11:50.686Z,26.38
2022-09-11T11:14:13.929Z,26.39
2022-09-11T11:16:57.648Z,26.37
2022-09-11T11:19:20.612Z,26.35
2022-09-11T11:21:30.076Z,26.33
2022-09-11T11:23:44.704Z,26.31
2022-09-11T11:26:04.681Z,26.27
2022-09-11T11:28:34.283Z,26.25
2022-09-11T11:30:55.156Z,26.22
2022-09-11T11:33:17.476Z,26.19
2022-09-11T11:35:49.908Z,26.18
2022-09-11T11:38:10.823Z,26.15
2022-09-11T11:40:34.535Z,26.14
2022-09-11T11:43:02.036Z,26.14
2022-09-11T11:45:16.751Z,26.13
2022-09-11T11:47:25.205Z,26.14
2022-09-11T11:49:47.253Z,26.11
2022-09-11T11:52:00.377Z,26.10
2022-09-11T11:54:10.674Z,26.13
2022-09-11T11:56:40.858Z,26.20
2022-09-11T11:58:52.762Z,26.27
2022-09-11T12:01:01.840Z,26.33
2022-09-11T12:03:36.542Z,26.38
2022-09-11T12:05:41.392Z,26.42
2022-09-11T12:07:43.402Z,26.45
2022-09-11T12:09:50.660Z,26.44
2022-09-11T12:11:58.052Z,26.45
2022-09-11T12:14:00.938Z,26.43
2022-09-11T12:16:21.327Z,26.38
2022-09-11T12:18:24.829Z,26.35
2022-09-11T12:20:37.512Z,26.29
2022-09-11T12:22:43.287Z,26.26
2022-09-11T12:24:50.007Z,26.20
2022-09-11T12:27:29.197Z,26.11
2022-09-11T12:29:30.636Z,26.05
2022-09-11T12:31:52.085Z,25.99
2022-09-11T12:33:54.960Z,25.96
2022-09-11T12:35:58.600Z,25.91
2022-09-11T12:38:02.636Z,25.90
2022-09-11T12:40:20.295Z,25.90
2022-09-11T12:42:25.270Z,25.87
2022-09-11T12:44:31.098Z,25.88
2022-09-11T12:46:48.742Z,25.91
2022-09-11T12:49:21.777Z,25.93
2022-09-11T12:54:04.705Z,25.96
2022-09-11T12:56:10.458Z,25.98
2022-09-11T12:58:20.924Z,26.00
2022-09-11T13:00:43.586Z,26.02
2022-09-11T13:02:51.760Z,26.04
2022-09-11T13:04:55.028Z,26.05
2022-09-11T13:07:15.850Z,26.05
2022-09-11T13:09:47.079Z,26.05
2022-09-11T13:11:51.994Z,26.06
2022-09-11T13:14:00.078Z,26.07
2022-09-11T13:16:17.641Z,26.06
2022-09-11T13:18:34.633Z,26.08
2022-09-11T13:20:36.195Z,26.14
2022-09-11T13:22:40.589Z,26.21
2022-09-11T13:25:03.967Z,26.28
2022-09-11T13:27:39.672Z,26.38
2022-09-11T13:29:44.827Z,26.51
2022-09-11T13:31:49.861Z,26.63
2022-09-11T13:33:57.706Z,26.73
2022-09-11T13:36:06.964Z,26.83
2022-09-11T13:38:30.468Z,26.95
2022-09-11T13:40:44.565Z,27.04
2022-09-11T13:42:46.858Z,27.14
2022-09-11T13:44:59.812Z,27.21
2022-09-11T13:47:01.282Z,27.31
2022-09-11T13:49:06.643Z,27.38
2022-09-11T13:51:13.011Z,27.48
2022-09-11T13:53:17.078Z,27.58
2022-09-11T13:55:27.208Z,27.65
2022-09-11T13:57:31.287Z,27.76
2022-09-11T13:59:49.459Z,27.84
2022-09-11T14:02:00.727Z,27.92
2022-09-11T14:04:09.660Z,28.00
2022-09-11T14:06:18.988Z,28.08
2022-09-11T14:08:27.137Z,28.14
2022-09-11T14:10:31.126Z,28.20
2022-09-11T14:12:45.191Z,28.26
2022-09-11T14:14:53.950Z,28.29
2022-09-11T14:16:59.163Z,28.32
2022-09-11T14:19:10.669Z,28.34
2022-09-11T14:21:19.502Z,28.37
2022-09-11T14:23:33.661Z,28.38
2022-09-11T14:25:35.597Z,28.38
2022-09-11T14:27:41.695Z,28.39
2022-09-11T14:29:52.666Z,28.35
2022-09-11T14:32:15.130Z,28.31
2022-09-11T14:34:25.913Z,28.25
2022-09-11T14:37:11.172Z,28.18
2022-09-11T14:39:17.348Z,28.11
2022-09-11T14:41:28.615Z,28.02
2022-09-11T14:43:33.830Z,27.96
2022-09-11T14:45:38.379Z,27.90
2022-09-11T14:47:40.097Z,27.85
2022-09-11T14:49:41.662Z,27.81
2022-09-11T14:51:43.865Z,27.78
2022-09-11T14:53:46.034Z,27.72
2022-09-11T14:55:47.768Z,27.68
2022-09-11T14:57:53.927Z,27.65
2022-09-11T14:59:55.739Z,27.60
2022-09-11T15:01:58.623Z,27.57
2022-09-11T15:04:02.502Z,27.53
2022-09-11T15:06:04.502Z,27.47
2022-09-11T15:08:06.406Z,27.42
2022-09-11T15:10:10.358Z,27.38
2022-09-11T15:12:14.091Z,27.35
2022-09-11T15:14:38.031Z,27.31
2022-09-11T15:16:46.815Z,27.26
2022-09-11T15:18:49.167Z,27.21
2022-09-11T15:20:51.320Z,27.19
2022-09-11T15:22:58.877Z,27.16
2022-09-11T15:25:01.892Z,27.12
2022-09-11T15:27:04.043Z,27.06
2022-09-11T15:29:09.958Z,27.02
2022-09-11T15:31:12.491Z,26.99
2022-09-11T15:33:14.345Z,26.94
2022-09-11T15:35:18.351Z,26.90
2022-09-11T15:37:25.490Z,26.84
2022-09-11T15:39:28.098Z,26.80
2022-09-11T15:41:30.437Z,26.77
2022-09-11T15:43:36.077Z,26.73
2022-09-11T15:45:45.066Z,26.69
2022-09-11T15:47:47.187Z,26.66
2022-09-11T15:49:48.772Z,26.64
2022-09-11T15:51:51.717Z,26.60
2022-09-11T15:54:00.044Z,26.56
2022-09-11T15:56:04.294Z,26.52
2022-09-11T15:58:06.104Z,26.45
2022-09-11T16:00:09.090Z,26.43
2022-09-11T16:02:21.594Z,26.39
2022-09-11T16:04:27.130Z,26.35
2022-09-11T16:06:30.753Z,26.30
2022-09-11T16:08:32.426Z,26.24
2022-09-11T16:10:37.952Z,26.19
2022-09-11T16:12:39.758Z,26.14
2022-09-11T16:14:44.517Z,26.09
2022-09-11T16:16:52.832Z,26.05
2022-09-11T16:18:55.010Z,26.00
2022-09-11T16:20:58.130Z,25.97
2022-09-11T16:23:00.239Z,25.94
2022-09-11T16:25:03.409Z,25.91
2022-09-11T16:27:07.643Z,25.86
2022-09-11T16:29:12.299Z,25.83
2022-09-11T16:31:15.261Z,25.81
2022-09-11T16:33:16.984Z,25.76
2022-09-11T16:35:20.212Z,25.72
2022-09-11T16:37:21.891Z,25.69
2022-09-11T16:39:23.418Z,25.64
2022-09-11T16:41:25.275Z,25.60
2022-09-11T16:43:27.039Z,25.55
2022-09-11T16:45:28.732Z,25.52
2022-09-11T16:47:30.645Z,25.49
2022-09-11T16:49:50.290Z,25.43
2022-09-11T16:51:55.177Z,25.38
2022-09-11T16:53:57.207Z,25.34
2022-09-11T16:56:03.282Z,25.32
2022-09-11T16:58:04.984Z,25.29
2022-09-11T17:00:11.428Z,25.26
2022-09-11T17:02:13.247Z,25.21
2022-09-11T17:04:14.987Z,25.16
2022-09-11T17:06:20.069Z,25.11
2022-09-11T17:08:22.121Z,25.05
2022-09-11T17:10:23.900Z,25.00
2022-09-11T17:12:30.659Z,24.95
2022-09-11T17:14:32.636Z,24.89
2022-09-11T17:16:35.768Z,24.83
2022-09-11T17:18:40.705Z,24.79
2022-09-11T17:20:42.782Z,24.74
2022-09-11T17:22:44.385Z,24.69
2022-09-11T17:24:45.843Z,24.64
2022-09-11T17:26:50.689Z,24.61
2022-09-11T17:28:52.996Z,24.56
2022-09-11T17:31:01.202Z,24.53
2022-09-11T17:33:03.122Z,24.50
2022-09-11T17:35:07.815Z,24.45
2022-09-11T17:37:09.981Z,24.42
2022-09-11T17:39:11.543Z,24.38
2022-09-11T17:41:13.896Z,24.32
2022-09-11T17:43:15.504Z,24.28
2022-09-11T17:45:17.208Z,24.25
2022-09-11T17:47:19.486Z,24.19
2022-09-11T17:49:21.285Z,24.11
2022-09-11T17:51:28.067Z,24.09
2022-09-11T17:53:38.560Z,24.01
2022-09-11T17:55:41.325Z,23.96
2022-09-11T17:57:45.475Z,23.92
2022-09-11T17:59:50.280Z,23.87
2022-09-11T18:01:55.587Z,23.82
2022-09-11T18:03:58.964Z,23.77
2022-09-11T18:06:02.707Z,23.75
2022-09-11T18:08:06.755Z,23.69
2022-09-11T18:10:08.901Z,23.64
2022-09-11T18:12:11.418Z,23.59
2022-09-11T18:14:14.605Z,23.54
2022-09-11T18:16:17.493Z,23.49
2022-09-11T18:18:19.599Z,23.44
2022-09-11T18:20:24.437Z,23.39
2022-09-11T18:22:26.114Z,23.35
2022-09-11T18:24:29.980Z,23.30
2022-09-11T18:26:35.795Z,23.23
2022-09-11T18:28:39.752Z,23.18
2022-09-11T18:30:42.719Z,23.13
2022-09-11T18:32:46.446Z,23.08
2022-09-11T18:34:48.473Z,23.04
2022-09-11T18:36:50.816Z,22.98
2022-09-11T18:38:54.137Z,22.92
2022-09-11T18:41:00.197Z,22.87
2022-09-11T18:43:02.758Z,22.81
2022-09-11T18:45:04.528Z,22.75
2022-09-11T18:47:06.519Z,22.68
2022-09-11T18:49:08.698Z,22.64
2022-09-11T18:51:11.336Z,22.58
2022-09-11T18:53:13.242Z,22.53
2022-09-11T18:55:17.887Z,22.46
2022-09-11T18:57:22.848Z,22.42
2022-09-11T18:59:24.688Z,22.35
2022-09-11T19:01:33.862Z,22.31
2022-09-11T19:03:36.569Z,22.25
2022-09-11T19:05:42.389Z,22.21
2022-09-11T19:07:45.286Z,22.16
2022-09-11T19:09:49.287Z,22.11
2022-09-11T19:11:52.800Z,22.06
2022-09-11T19:14:00.371Z,22.02
2022-09-11T19:16:04.162Z,21.97
2022-09-11T19:18:14.761Z,21.93
2022-09-11T19:20:16.613Z,21.87
2022-09-11T19:22:23.829Z,21.83
2022-09-11T19:24:30.780Z,21.78
2022-09-11T19:26:35.062Z,21.73
2022-09-11T19:28:37.479Z,21.68
2022-09-11T19:30:45.023Z,21.62
2022-09-11T19:32:46.398Z,21.58
2022-09-11T19:34:48.012Z,21.52
2022-09-11T19:36:52.040Z,21.48
2022-09-11T19:39:01.190Z,21.43
2022-09-11T19:41:04.213Z,21.37
2022-09-11T19:43:06.973Z,21.34
2022-09-11T19:45:08.933Z,21.28
2022-09-11T19:47:13.235Z,21.24
2022-09-11T19:49:14.851Z,21.17
2022-09-11T19:51:21.322Z,21.13
2022-09-11T19:53:24.186Z,21.09
2022-09-11T19:55:28.369Z,21.04
2022-09-11T19:57:30.962Z,21.00
2022-09-11T19:59:33.006Z,20.94
2022-09-11T20:01:35.187Z,20.92
2022-09-11T20:03:40.736Z,20.86
2022-09-11T20:05:46.500Z,20.83
2022-09-11T20:07:48.289Z,20.79
2022-09-11T20:09:50.151Z,20.75
2022-09-11T20:11:54.772Z,20.71
2022-09-11T20:14:00.285Z,20.67
2022-09-11T20:16:06.918Z,20.60
2022-09-11T20:18:09.104Z,20.57
2022-09-11T20:20:11.843Z,20.52
2022-09-11T20:22:15.575Z,20.47
2022-09-11T20:24:17.166Z,20.44
2022-09-11T20:26:25.947Z,20.41
2022-09-11T20:28:30.557Z,20.36
2022-09-11T20:30:39.953Z,20.30
2022-09-11T20:32:41.528Z,20.25
2022-09-11T20:34:43.122Z,20.21
2022-09-11T20:36:47.314Z,20.19
2022-09-11T20:38:53.618Z,20.15
2022-09-11T20:40:55.141Z,20.13
2022-09-11T20:42:56.812Z,20.10
2022-09-11T20:45:00.578Z,20.08
2022-09-11T20:47:03.157Z,20.04
2022-09-11T20:49:05.181Z,20.00
2022-09-11T20:51:10.183Z,19.98
2022-09-11T20:53:11.843Z,19.95
2022-09-11T20:55:16.267Z,19.93
2022-09-11T20:57:17.922Z,19.91
2022-09-11T20:59:19.490Z,19.88
2022-09-11T21:01:23.183Z,19.84
2022-09-11T21:03:28.526Z,19.81
2022-09-11T21:05:30.058Z,19.77
2022-09-11T21:07:32.119Z,19.73
2022-09-11T21:09:40.032Z,19.71
2022-09-11T21:11:44.813Z,19.66
2022-09-11T21:13:46.335Z,19.63
2022-09-11T21:15:48.302Z,19.61
2022-09-11T21:17:49.957Z,19.60
2022-09-11T21:19:56.743Z,19.55
2022-09-11T21:22:06.650Z,19.51
2022-09-11T21:24:13.412Z,19.48
2022-09-11T21:26:20.007Z,19.47
2022-09-11T21:28:22.162Z,19.44
2022-09-11T21:30:23.800Z,19.40
2022-09-11T21:32:28.231Z,19.38
2022-09-11T21:34:29.772Z,19.34
2022-09-11T21:36:33.518Z,19.30
2022-09-11T21:38:36.673Z,19.28
2022-09-11T21:40:38.418Z,19.26
2022-09-11T21:42:39.947Z,19.23
2022-09-11T21:44:41.595Z,19.21
2022-09-11T21:46:48.429Z,19.18
2022-09-11T21:48:50.120Z,19.16
2022-09-11T21:50:54.000Z,19.14
2022-09-11T21:52:55.569Z,19.11
2022-09-11T21:54:58.588Z,19.08
2022-09-11T21:57:00.042Z,19.07
2022-09-11T21:59:02.242Z,19.03
2022-09-11T22:01:08.211Z,19.01
2022-09-11T22:03:12.251Z,18.99
2022-09-11T22:05:16.245Z,18.96
2022-09-11T22:07:19.399Z,18.93
2022-09-11T22:09:20.841Z,18.92
2022-09-11T22:11:23.296Z,18.90
2022-09-11T22:13:24.818Z,18.89
2022-09-11T22:15:26.375Z,18.87
2022-09-11T22:17:28.883Z,18.86
2022-09-11T22:19:30.282Z,18.83
2022-09-11T22:21:37.301Z,18.82
2022-09-11T22:23:38.983Z,18.79
2022-09-11T22:25:40.875Z,18.77
2022-09-11T22:27:45.639Z,18.76
2022-09-11T22:29:47.200Z,18.71
2022-09-11T22:31:48.718Z,18.70
2022-09-11T22:33:53.257Z,18.67
2022-09-11T22:35:57.814Z,18.63
2022-09-11T22:37:59.353Z,18.61
2022-09-11T22:40:03.117Z,18.60
2022-09-11T22:42:05.045Z,18.57
2022-09-11T22:44:07.970Z,18.56
2022-09-11T22:46:09.613Z,18.53
2022-09-11T22:48:11.213Z,18.51
2022-09-11T22:50:14.009Z,18.48
2022-09-11T22:52:22.176Z,18.46
2022-09-11T22:54:23.598Z,18.43
2022-09-11T22:56:25.249Z,18.42
2022-09-11T22:58:30.693Z,18.40
2022-09-11T23:00:32.165Z,18.36
2022-09-11T23:02:33.868Z,18.34
2022-09-11T23:04:38.331Z,18.32
2022-09-11T23:07:00.405Z,18.30
2022-09-11T23:09:07.889Z,18.26
2022-09-11T23:11:15.320Z,18.24
2022-09-11T23:13:19.182Z,18.21
2022-09-11T23:15:21.264Z,18.19
2022-09-11T23:17:24.225Z,18.18
2022-09-11T23:19:26.265Z,18.17
2022-09-11T23:21:29.606Z,18.15
2022-09-11T23:23:33.890Z,18.12
2022-09-11T23:25:39.912Z,18.09
2022-09-11T23:27:44.246Z,18.06
2022-09-11T23:29:48.615Z,18.04
2022-09-11T23:31:50.381Z,18.01
2022-09-11T23:33:54.456Z,17.99
2022-09-11T23:35:59.116Z,17.96
2022-09-11T23:38:03.849Z,17.95
2022-09-11T23:40:06.231Z,17.93
2022-09-11T23:42:10.231Z,17.91
2022-09-11T23:44:12.055Z,17.89
2022-09-11T23:46:14.590Z,17.86
2022-09-11T23:48:18.894Z,17.84
2022-09-11T23:50:20.766Z,17.83
2022-09-11T23:52:22.425Z,17.80
2022-09-11T23:54:24.038Z,17.79
2022-09-11T23:56:25.482Z,17.76
2022-09-11T23:58:35.601Z,17.75
